createdAt,value
2018-11-05T00:01:36.441Z,11.10
2018-11-05T00:04:04.580Z,11.20
2018-11-05T00:06:32.718Z,11.20
2018-11-05T00:09:00.817Z,11.20
2018-11-05T00:11:29.088Z,11.20
2018-11-05T00:13:57.164Z,11.20
2018-11-05T00:16:25.290Z,11.20
2018-11-05T00:18:53.400Z,11.30
2018-11-05T00:21:21.479Z,11.20
2018-11-05T00:23:49.545Z,11.20
2018-11-05T00:26:17.758Z,11.20
2018-11-05T00:28:45.833Z,11.20
2018-11-05T00:31:14.050Z,11.20
2018-11-05T00:33:42.161Z,11.30
2018-11-05T00:36:10.312Z,11.20
2018-11-05T00:38:38.369Z,11.30
2018-11-05T00:41:06.519Z,11.30
2018-11-05T00:43:34.593Z,11.20
2018-11-05T00:46:02.782Z,11.30
2018-11-05T00:48:30.880Z,11.30
2018-11-05T00:50:59.038Z,11.20
2018-11-05T00:53:27.130Z,11.20
2018-11-05T00:55:55.296Z,11.20
2018-11-05T00:58:23.429Z,11.30
2018-11-05T01:00:51.666Z,11.30
2018-11-05T01:03:19.742Z,11.20
2018-11-05T01:05:47.831Z,11.20
2018-11-05T01:08:15.884Z,11.20
2018-11-05T01:10:44.093Z,11.20
2018-11-05T01:13:12.152Z,11.20
2018-11-05T01:15:40.368Z,11.10
2018-11-05T01:18:08.424Z,11.10
2018-11-05T01:22:48.734Z,11.10
2018-11-05T01:25:16.833Z,11.20
2018-11-05T01:27:44.889Z,11.20
2018-11-05T01:30:13.685Z,11.10
2018-11-05T01:32:41.946Z,11.20
2018-11-05T01:35:11.577Z,11.10
2018-11-05T01:37:39.691Z,11.20
2018-11-05T01:40:09.306Z,11.20
2018-11-05T01:42:37.621Z,11.20
2018-11-05T01:45:07.047Z,11.20
2018-11-05T01:47:35.126Z,11.20
2018-11-05T01:50:03.300Z,11.20
2018-11-05T01:52:31.378Z,11.10
2018-11-05T01:54:59.486Z,11.10
2018-11-05T01:57:27.586Z,11.00
2018-11-05T01:59:55.687Z,11.00
2018-11-05T02:02:23.851Z,11.10
2018-11-05T02:04:52.036Z,11.20
2018-11-05T02:07:20.134Z,11.10
2018-11-05T02:09:48.249Z,11.20
2018-11-05T02:12:16.338Z,11.20
2018-11-05T02:14:44.430Z,11.20
2018-11-05T02:17:12.905Z,11.20
2018-11-05T02:19:41.439Z,11.20
2018-11-05T02:22:09.659Z,11.10
2018-11-05T02:24:37.746Z,11.20
2018-11-05T02:27:05.905Z,11.10
2018-11-05T02:29:34.151Z,11.20
2018-11-05T02:32:02.433Z,11.20
2018-11-05T02:34:30.602Z,11.10
2018-11-05T02:36:58.693Z,11.10
2018-11-05T02:39:26.836Z,11.10
2018-11-05T02:41:54.998Z,11.10
2018-11-05T02:44:23.254Z,11.10
2018-11-05T02:46:51.320Z,11.10
2018-11-05T02:49:19.531Z,11.10
2018-11-05T02:51:47.648Z,11.20
2018-11-05T02:54:15.710Z,11.20
2018-11-05T02:56:43.795Z,11.10
2018-11-05T02:59:11.875Z,11.20
2018-11-05T03:01:39.974Z,11.20
2018-11-05T03:04:08.068Z,11.20
2018-11-05T03:06:43.001Z,11.20
2018-11-05T03:09:12.449Z,11.10
2018-11-05T03:11:40.915Z,11.10
2018-11-05T03:14:09.184Z,11.10
2018-11-05T03:16:37.776Z,11.10
2018-11-05T03:19:06.161Z,11.10
2018-11-05T03:21:34.384Z,11.10
2018-11-05T03:24:02.541Z,11.20
2018-11-05T03:26:30.989Z,11.20
2018-11-05T03:28:59.101Z,11.20
2018-11-05T03:31:27.217Z,11.20
2018-11-05T03:33:55.451Z,11.30
2018-11-05T03:36:23.669Z,11.30
2018-11-05T03:38:51.850Z,11.30
2018-11-05T03:41:19.944Z,11.20
2018-11-05T03:43:48.048Z,11.20
2018-11-05T03:46:16.137Z,11.20
2018-11-05T03:48:44.237Z,11.20
2018-11-05T03:51:12.329Z,11.20
2018-11-05T03:53:40.528Z,11.20
2018-11-05T03:56:08.650Z,11.20
2018-11-05T03:58:36.715Z,11.20
2018-11-05T04:01:04.829Z,11.20
2018-11-05T04:03:33.091Z,11.20
2018-11-05T04:06:01.149Z,11.20
2018-11-05T04:08:29.437Z,11.30
2018-11-05T04:10:57.552Z,11.30
2018-11-05T04:13:25.657Z,11.30
2018-11-05T04:15:53.812Z,11.30
2018-11-05T04:18:21.932Z,11.30
2018-11-05T04:20:50.109Z,11.30
2018-11-05T04:23:18.365Z,11.30
2018-11-05T04:25:46.471Z,11.20
2018-11-05T04:29:41.235Z,11.30
2018-11-05T04:32:09.437Z,11.20
2018-11-05T04:34:37.528Z,11.20
2018-11-05T04:37:05.804Z,11.20
2018-11-05T04:39:33.920Z,11.30
2018-11-05T04:42:02.050Z,11.30
2018-11-05T04:44:30.312Z,11.30
2018-11-05T04:46:58.418Z,11.20
2018-11-05T04:49:26.701Z,11.20
2018-11-05T04:51:54.833Z,11.20
2018-11-05T04:54:22.916Z,11.20
2018-11-05T04:56:51.038Z,11.10
2018-11-05T04:59:19.245Z,11.10
2018-11-05T05:01:47.350Z,11.10
2018-11-05T05:04:15.565Z,11.10
2018-11-05T05:06:43.885Z,11.10
2018-11-05T05:09:12.913Z,11.10
2018-11-05T05:11:41.400Z,11.10
2018-11-05T05:14:09.708Z,11.10
2018-11-05T05:16:38.426Z,11.10
2018-11-05T05:19:06.532Z,11.10
2018-11-05T05:21:36.007Z,11.10
2018-11-05T05:24:04.153Z,11.20
2018-11-05T05:26:32.373Z,11.20
2018-11-05T05:29:00.476Z,11.20
2018-11-05T05:31:28.770Z,11.20
2018-11-05T05:33:56.895Z,11.20
2018-11-05T05:36:24.988Z,11.20
2018-11-05T05:38:53.085Z,11.20
2018-11-05T05:41:21.341Z,11.20
2018-11-05T05:43:49.444Z,11.20
2018-11-05T05:46:17.638Z,11.20
2018-11-05T05:48:45.745Z,11.20
2018-11-05T05:51:14.108Z,11.20
2018-11-05T05:53:42.290Z,11.20
2018-11-05T05:56:10.390Z,11.20
2018-11-05T05:58:38.548Z,11.20
2018-11-05T06:01:06.628Z,11.20
2018-11-05T06:03:34.838Z,11.20
2018-11-05T06:06:02.966Z,11.20
2018-11-05T06:08:31.121Z,11.20
2018-11-05T06:10:59.273Z,11.20
2018-11-05T06:13:27.533Z,11.20
2018-11-05T06:15:55.727Z,11.20
2018-11-05T06:18:23.748Z,11.20
2018-11-05T06:20:51.853Z,11.30
2018-11-05T06:23:20.151Z,11.30
2018-11-05T06:25:48.232Z,11.30
2018-11-05T06:28:16.468Z,11.30
2018-11-05T06:30:44.577Z,11.20
2018-11-05T06:33:12.745Z,11.20
2018-11-05T06:35:40.873Z,11.20
2018-11-05T06:38:09.226Z,11.30
2018-11-05T06:40:37.342Z,11.20
2018-11-05T06:43:05.831Z,11.20
2018-11-05T06:45:34.015Z,11.20
2018-11-05T06:48:02.046Z,11.20
2018-11-05T06:50:30.150Z,11.20
2018-11-05T06:52:58.353Z,11.20
2018-11-05T06:55:26.335Z,11.20
2018-11-05T06:57:54.673Z,11.30
2018-11-05T07:00:23.909Z,11.20
2018-11-05T07:02:52.068Z,11.30
2018-11-05T07:05:20.309Z,11.30
2018-11-05T07:07:48.469Z,11.30
2018-11-05T07:10:17.223Z,11.30
2018-11-05T07:12:45.625Z,11.30
2018-11-05T07:15:15.911Z,11.40
2018-11-05T07:17:45.008Z,11.40
2018-11-05T07:20:21.281Z,11.40
2018-11-05T07:22:50.173Z,11.40
2018-11-05T07:25:18.309Z,11.40
2018-11-05T07:27:46.610Z,11.50
2018-11-05T07:30:19.604Z,11.50
2018-11-05T07:32:48.614Z,11.50
2018-11-05T07:35:16.804Z,11.50
2018-11-05T07:37:44.943Z,11.60
2018-11-05T07:40:14.260Z,11.60
2018-11-05T07:42:42.420Z,11.70
2018-11-05T07:45:13.477Z,11.70
2018-11-05T07:47:42.693Z,11.80
2018-11-05T07:50:12.270Z,11.80
2018-11-05T07:52:40.360Z,11.80
2018-11-05T07:55:10.256Z,11.90
2018-11-05T07:57:39.201Z,12.00
2018-11-05T08:00:15.898Z,12.00
2018-11-05T08:02:44.775Z,12.10
2018-11-05T08:05:13.376Z,12.10
2018-11-05T08:07:41.549Z,12.10
2018-11-05T08:10:10.125Z,12.20
2018-11-05T08:12:38.845Z,12.20
2018-11-05T08:15:08.212Z,12.30
2018-11-05T08:17:36.341Z,12.30
2018-11-05T08:20:04.720Z,12.30
2018-11-05T08:22:32.860Z,12.30
2018-11-05T08:25:01.060Z,12.30
2018-11-05T08:27:29.186Z,12.30
2018-11-05T08:29:57.301Z,12.30
2018-11-05T08:32:25.425Z,12.30
2018-11-05T08:34:53.593Z,12.40
2018-11-05T08:37:21.696Z,12.40
2018-11-05T08:39:49.846Z,12.40
2018-11-05T08:42:17.952Z,12.50
2018-11-05T08:44:46.081Z,12.50
2018-11-05T08:47:14.296Z,12.50
2018-11-05T08:49:42.417Z,12.50
2018-11-05T08:52:10.870Z,12.60
2018-11-05T08:54:39.245Z,12.60
2018-11-05T08:57:07.421Z,12.70
2018-11-05T08:59:35.557Z,12.70
2018-11-05T09:02:03.735Z,12.80
2018-11-05T09:04:31.912Z,12.80
2018-11-05T09:07:00.098Z,12.90
2018-11-05T09:09:28.233Z,12.90
2018-11-05T09:11:56.391Z,13.00
2018-11-05T09:14:24.457Z,13.00
2018-11-05T09:16:52.760Z,12.90
2018-11-05T09:19:20.964Z,12.90
2018-11-05T09:21:49.146Z,12.90
2018-11-05T09:24:17.306Z,12.90
2018-11-05T09:26:45.404Z,12.90
2018-11-05T09:29:13.532Z,12.90
2018-11-05T09:31:41.633Z,12.90
2018-11-05T09:34:09.763Z,12.90
2018-11-05T09:36:37.914Z,12.80
2018-11-05T09:39:07.226Z,12.80
2018-11-05T09:41:35.355Z,12.90
2018-11-05T09:44:03.646Z,13.00
2018-11-05T09:46:31.759Z,13.10
2018-11-05T09:48:59.946Z,13.20
2018-11-05T09:51:28.078Z,13.30
2018-11-05T09:53:56.174Z,13.40
2018-11-05T09:56:24.343Z,13.30
2018-11-05T09:58:52.438Z,13.30
2018-11-05T10:01:20.550Z,13.40
2018-11-05T10:03:57.550Z,13.40
2018-11-05T10:06:26.496Z,13.30
2018-11-05T10:08:54.637Z,13.30
2018-11-05T10:11:22.785Z,13.30
2018-11-05T10:13:50.910Z,13.40
2018-11-05T10:16:19.085Z,13.40
2018-11-05T10:18:47.205Z,13.50
2018-11-05T10:21:15.473Z,13.60
2018-11-05T10:23:43.671Z,13.80
2018-11-05T10:26:11.951Z,13.90
2018-11-05T10:28:40.069Z,13.90
2018-11-05T10:31:08.205Z,14.00
2018-11-05T10:33:36.460Z,14.10
2018-11-05T10:36:04.619Z,14.30
2018-11-05T10:38:32.889Z,14.40
2018-11-05T10:41:01.253Z,14.40
2018-11-05T10:43:29.371Z,15.10
2018-11-05T10:45:57.562Z,15.80
2018-11-05T10:48:25.735Z,15.80
2018-11-05T10:50:53.974Z,15.60
2018-11-05T10:53:22.277Z,15.80
2018-11-05T10:55:50.364Z,15.70
2018-11-05T10:58:18.644Z,15.90
2018-11-05T11:00:52.199Z,16.40
2018-11-05T11:03:20.622Z,16.70
2018-11-05T11:05:48.885Z,16.90
2018-11-05T11:08:17.045Z,17.00
2018-11-05T11:10:45.197Z,17.00
2018-11-05T11:13:13.465Z,16.90
2018-11-05T11:15:41.587Z,16.70
2018-11-05T11:18:09.780Z,16.60
2018-11-05T11:20:37.948Z,16.40
2018-11-05T11:23:06.178Z,16.10
2018-11-05T11:25:34.302Z,16.10
2018-11-05T11:28:02.566Z,16.10
2018-11-05T11:30:30.593Z,16.10
2018-11-05T11:32:58.774Z,16.00
2018-11-05T11:35:26.906Z,15.80
2018-11-05T11:37:55.273Z,15.60
2018-11-05T11:40:26.871Z,15.30
2018-11-05T11:42:55.018Z,15.10
2018-11-05T11:45:23.742Z,15.10
2018-11-05T11:47:51.949Z,15.00
2018-11-05T11:50:20.368Z,15.10
2018-11-05T11:52:48.886Z,15.10
2018-11-05T11:55:18.157Z,15.00
2018-11-05T11:57:46.910Z,15.00
2018-11-05T12:00:17.119Z,15.00
2018-11-05T12:02:45.823Z,14.90
2018-11-05T12:05:14.468Z,15.00
2018-11-05T12:07:42.517Z,14.90
2018-11-05T12:10:13.632Z,15.00
2018-11-05T12:12:41.849Z,15.00
2018-11-05T12:15:10.986Z,14.90
2018-11-05T12:17:39.873Z,14.90
2018-11-05T12:20:10.212Z,15.00
2018-11-05T12:22:38.378Z,15.00
2018-11-05T12:25:06.691Z,15.00
2018-11-05T12:27:34.873Z,15.10
2018-11-05T12:30:03.092Z,15.20
2018-11-05T12:32:31.376Z,15.20
2018-11-05T12:34:59.514Z,15.20
2018-11-05T12:37:27.621Z,15.10
2018-11-05T12:39:55.733Z,15.10
2018-11-05T12:42:23.973Z,15.00
2018-11-05T12:44:52.149Z,14.90
2018-11-05T12:47:20.220Z,14.90
2018-11-05T12:49:48.404Z,14.80
2018-11-05T12:52:16.576Z,14.80
2018-11-05T12:54:44.744Z,14.80
2018-11-05T12:57:12.866Z,14.80
2018-11-05T12:59:41.060Z,14.80
2018-11-05T13:02:09.197Z,14.90
2018-11-05T13:04:37.309Z,14.90
2018-11-05T13:07:05.578Z,15.00
2018-11-05T13:09:33.684Z,15.10
2018-11-05T13:12:01.945Z,15.20
2018-11-05T13:14:30.084Z,15.20
2018-11-05T13:16:58.288Z,15.30
2018-11-05T13:19:26.420Z,15.40
2018-11-05T13:21:54.547Z,15.40
2018-11-05T13:24:22.653Z,15.40
2018-11-05T13:26:50.774Z,15.30
2018-11-05T13:29:18.873Z,15.20
2018-11-05T13:31:46.968Z,15.00
2018-11-05T13:34:15.216Z,14.90
2018-11-05T13:36:43.388Z,14.90
2018-11-05T13:39:11.512Z,14.80
2018-11-05T13:41:39.613Z,14.70
2018-11-05T13:44:07.899Z,14.70
2018-11-05T13:46:36.399Z,14.70
2018-11-05T13:49:06.458Z,14.60
2018-11-05T13:51:34.086Z,14.50
2018-11-05T13:54:02.384Z,14.40
2018-11-05T13:56:30.428Z,14.30
2018-11-05T13:58:58.561Z,14.30
2018-11-05T14:01:26.662Z,14.30
2018-11-05T14:03:54.797Z,14.30
2018-11-05T14:06:22.914Z,14.30
2018-11-05T14:08:51.092Z,14.30
2018-11-05T14:11:19.212Z,14.20
2018-11-05T14:13:47.403Z,14.30
2018-11-05T14:16:15.508Z,14.20
2018-11-05T14:18:43.662Z,14.20
2018-11-05T14:21:11.856Z,14.20
2018-11-05T14:23:40.098Z,14.20
2018-11-05T14:26:08.634Z,14.20
2018-11-05T14:28:37.081Z,14.10
2018-11-05T14:31:05.152Z,14.20
2018-11-05T14:33:33.252Z,14.10
2018-11-05T14:36:01.517Z,14.00
2018-11-05T14:38:29.651Z,14.00
2018-11-05T14:40:57.893Z,13.90
2018-11-05T14:43:26.004Z,13.90
2018-11-05T14:45:54.089Z,13.90
2018-11-05T14:48:22.212Z,13.90
2018-11-05T14:50:50.558Z,13.80
2018-11-05T14:53:18.485Z,13.80
2018-11-05T14:55:46.661Z,13.80
2018-11-05T14:58:14.769Z,13.70
2018-11-05T15:00:42.918Z,13.70
2018-11-05T15:03:11.097Z,13.70
2018-11-05T15:05:39.307Z,13.70
2018-11-05T15:08:07.405Z,13.60
2018-11-05T15:10:35.593Z,13.50
2018-11-05T15:13:03.761Z,13.40
2018-11-05T15:15:31.865Z,13.40
2018-11-05T15:18:00.028Z,13.40
2018-11-05T15:20:28.160Z,13.30
2018-11-05T15:22:56.212Z,13.30
2018-11-05T15:25:24.480Z,13.20
2018-11-05T15:27:52.578Z,13.10
2018-11-05T15:30:21.865Z,13.10
2018-11-05T15:32:50.073Z,13.10
2018-11-05T15:35:18.189Z,13.00
2018-11-05T15:37:46.482Z,13.00
2018-11-05T15:40:15.809Z,12.90
2018-11-05T15:42:43.968Z,12.80
2018-11-05T15:45:13.421Z,12.70
2018-11-05T15:47:42.103Z,12.60
2018-11-05T15:50:12.035Z,12.50
2018-11-05T15:52:40.538Z,12.50
2018-11-05T15:55:08.422Z,12.40
2018-11-05T15:57:37.369Z,12.30
2018-11-05T16:00:11.969Z,12.30
2018-11-05T16:02:40.153Z,12.20
2018-11-05T16:05:08.337Z,12.20
2018-11-05T16:07:36.555Z,12.10
2018-11-05T16:10:06.144Z,12.00
2018-11-05T16:12:34.832Z,11.90
2018-11-05T16:15:03.070Z,11.80
2018-11-05T16:17:31.145Z,11.70
2018-11-05T16:19:59.401Z,11.60
2018-11-05T16:22:27.546Z,11.60
2018-11-05T16:24:55.670Z,11.60
2018-11-05T16:27:23.810Z,11.50
2018-11-05T16:29:51.925Z,11.60
2018-11-05T16:32:20.045Z,11.50
2018-11-05T16:34:48.322Z,11.40
2018-11-05T16:37:16.422Z,11.30
2018-11-05T16:39:44.791Z,11.20
2018-11-05T16:42:12.749Z,11.10
2018-11-05T16:44:40.870Z,11.10
2018-11-05T16:47:08.940Z,11.00
2018-11-05T16:49:37.509Z,11.00
2018-11-05T16:52:06.129Z,11.10
2018-11-05T16:54:34.280Z,11.00
2018-11-05T16:57:02.434Z,11.00
2018-11-05T16:59:30.524Z,11.00
2018-11-05T17:01:59.113Z,10.90
2018-11-05T17:04:26.749Z,10.80
2018-11-05T17:06:54.861Z,10.80
2018-11-05T17:09:23.032Z,10.80
2018-11-05T17:11:51.169Z,10.70
2018-11-05T17:14:19.461Z,10.70
2018-11-05T17:16:47.702Z,10.70
2018-11-05T17:19:16.627Z,10.80
2018-11-05T17:21:44.688Z,10.70
2018-11-05T17:24:12.833Z,10.80
2018-11-05T17:26:40.916Z,10.80
2018-11-05T17:29:09.091Z,10.80
2018-11-05T17:31:37.321Z,10.80
2018-11-05T17:34:05.529Z,10.70
2018-11-05T17:36:33.658Z,10.60
2018-11-05T17:39:02.012Z,10.60
2018-11-05T17:41:30.130Z,10.50
2018-11-05T17:43:58.503Z,10.50
2018-11-05T17:46:26.649Z,10.50
2018-11-05T17:48:54.915Z,10.30
2018-11-05T17:51:23.163Z,10.30
2018-11-05T17:53:51.290Z,10.10
2018-11-05T17:56:19.477Z,10.10
2018-11-05T17:58:47.628Z,10.10
2018-11-05T18:01:15.792Z,10.00
2018-11-05T18:03:44.058Z,10.00
2018-11-05T18:06:12.129Z,9.90
2018-11-05T18:08:40.276Z,9.80
2018-11-05T18:11:08.381Z,9.70
2018-11-05T18:13:36.643Z,9.60
2018-11-05T18:16:05.093Z,9.60
2018-11-05T18:18:33.616Z,9.60
2018-11-05T18:21:05.688Z,9.50
2018-11-05T18:23:34.310Z,9.40
2018-11-05T18:26:02.969Z,9.40
2018-11-05T18:28:31.133Z,9.30
2018-11-05T18:33:36.683Z,9.20
2018-11-05T18:36:04.962Z,9.20
2018-11-05T18:38:33.175Z,9.20
2018-11-05T18:41:01.376Z,9.10
2018-11-05T18:43:29.629Z,9.10
2018-11-05T18:45:57.984Z,9.10
2018-11-05T18:48:26.594Z,9.00
2018-11-05T18:50:54.817Z,9.00
2018-11-05T18:53:22.948Z,8.90
2018-11-05T18:55:51.082Z,8.80
2018-11-05T18:58:19.302Z,8.80
2018-11-05T19:00:47.443Z,8.70
2018-11-05T19:03:15.738Z,8.70
2018-11-05T19:05:43.827Z,8.60
2018-11-05T19:08:11.987Z,8.60
2018-11-05T19:10:40.120Z,8.50
2018-11-05T19:13:08.294Z,8.50
2018-11-05T19:15:36.457Z,8.40
2018-11-05T19:18:05.210Z,8.40
2018-11-05T19:20:33.325Z,8.30
2018-11-05T19:23:01.501Z,8.30
2018-11-05T19:25:29.590Z,8.20
2018-11-05T19:27:57.857Z,8.20
2018-11-05T19:30:27.217Z,8.20
2018-11-05T19:32:55.276Z,8.10
2018-11-05T19:35:23.380Z,8.10
2018-11-05T19:37:51.486Z,8.10
2018-11-05T19:40:20.106Z,8.00
2018-11-05T19:42:48.862Z,8.00
2018-11-05T19:45:18.265Z,8.00
2018-11-05T19:47:46.424Z,8.00
2018-11-05T19:50:16.957Z,7.90
2018-11-05T19:52:45.964Z,7.80
2018-11-05T19:55:15.208Z,7.80
2018-11-05T19:57:44.200Z,7.80
2018-11-05T20:00:18.457Z,7.80
2018-11-05T20:02:47.169Z,7.80
2018-11-05T20:05:15.747Z,7.70
2018-11-05T20:07:44.437Z,7.70
2018-11-05T20:10:13.061Z,7.60
2018-11-05T20:12:42.013Z,7.60
2018-11-05T20:15:10.285Z,7.50
2018-11-05T20:17:39.680Z,7.50
2018-11-05T20:20:09.497Z,7.40
2018-11-05T20:22:37.723Z,7.40
2018-11-05T20:25:06.868Z,7.40
2018-11-05T20:27:35.393Z,7.40
2018-11-05T20:30:03.527Z,7.30
2018-11-05T20:32:32.186Z,7.30
2018-11-05T20:34:59.988Z,7.30
2018-11-05T20:37:28.312Z,7.30
2018-11-05T20:39:56.644Z,7.30
2018-11-05T20:42:24.706Z,7.30
2018-11-05T20:44:52.798Z,7.30
2018-11-05T20:47:20.969Z,7.20
2018-11-05T20:49:49.077Z,7.20
2018-11-05T20:52:17.293Z,7.20
2018-11-05T20:54:45.772Z,7.20
2018-11-05T20:57:13.966Z,7.20
2018-11-05T20:59:42.094Z,7.20
2018-11-05T21:02:10.352Z,7.10
2018-11-05T21:04:38.481Z,7.00
2018-11-05T21:07:06.630Z,7.00
2018-11-05T21:09:35.257Z,7.00
2018-11-05T21:12:03.337Z,7.00
2018-11-05T21:14:31.694Z,7.00
2018-11-05T21:17:03.354Z,6.90
2018-11-05T21:19:31.660Z,6.90
2018-11-05T21:22:00.013Z,6.90
2018-11-05T21:24:27.976Z,7.00
2018-11-05T21:26:56.457Z,7.00
2018-11-05T21:29:25.877Z,7.00
2018-11-05T21:31:54.057Z,7.10
2018-11-05T21:34:22.156Z,7.20
2018-11-05T21:36:50.254Z,7.20
2018-11-05T21:39:18.358Z,7.10
2018-11-05T21:41:46.469Z,7.10
2018-11-05T21:44:14.573Z,7.10
2018-11-05T21:46:42.683Z,7.00
2018-11-05T21:49:11.001Z,6.90
2018-11-05T21:51:39.095Z,6.80
2018-11-05T21:54:07.227Z,6.80
2018-11-05T21:56:35.364Z,6.80
2018-11-05T21:59:03.539Z,6.80
2018-11-05T22:01:31.637Z,6.80
2018-11-05T22:03:59.790Z,6.80
2018-11-05T22:06:27.900Z,6.70
2018-11-05T22:08:56.012Z,6.60
2018-11-05T22:11:24.109Z,6.60
2018-11-05T22:13:52.268Z,6.60
2018-11-05T22:16:20.392Z,6.50
2018-11-05T22:18:48.562Z,6.50
2018-11-05T22:21:16.692Z,6.50
2018-11-05T22:23:44.841Z,6.40
2018-11-05T22:26:12.960Z,6.40
2018-11-05T22:28:41.216Z,6.40
2018-11-05T22:31:09.430Z,6.40
2018-11-05T22:33:37.682Z,6.40
2018-11-05T22:36:05.803Z,6.30
2018-11-05T22:38:33.927Z,6.30
2018-11-05T22:41:02.032Z,6.30
2018-11-05T22:43:30.219Z,6.30
2018-11-05T22:45:58.338Z,6.30
2018-11-05T22:48:26.604Z,6.30
2018-11-05T22:50:54.717Z,6.20
2018-11-05T22:53:22.845Z,6.20
2018-11-05T22:55:50.962Z,6.20
2018-11-05T22:58:19.130Z,6.20
2018-11-05T23:00:52.809Z,6.20
2018-11-05T23:03:26.201Z,6.20
2018-11-05T23:05:54.323Z,6.20
2018-11-05T23:08:22.534Z,6.20
2018-11-05T23:10:50.644Z,6.20
2018-11-05T23:13:18.770Z,6.20
2018-11-05T23:15:46.922Z,6.30
2018-11-05T23:18:15.175Z,6.30
2018-11-05T23:20:43.259Z,6.40
2018-11-05T23:23:11.440Z,6.40
2018-11-05T23:25:39.586Z,6.40
2018-11-05T23:28:07.963Z,6.40
2018-11-05T23:30:36.100Z,6.50
2018-11-05T23:33:04.417Z,6.50
2018-11-05T23:35:32.532Z,6.60
2018-11-05T23:38:00.696Z,6.60
2018-11-05T23:40:28.809Z,6.60
2018-11-05T23:42:56.924Z,6.60
2018-11-05T23:45:25.096Z,6.70
2018-11-05T23:47:53.305Z,6.80
2018-11-05T23:50:21.437Z,7.00
2018-11-05T23:52:49.580Z,6.90
2018-11-05T23:55:17.709Z,6.80
2018-11-05T23:57:45.832Z,6.70
